sensor_id;sensor_type;location;lat;lon;timestamp;P1;durP1;ratioP1;P2;durP2;ratioP2
35907;SDS011;22003;50.320;8.054;2022-09-16T04:00:15;5.65;;;1.15;;
35907;SDS011;22003;50.320;8.054;2022-09-16T04:02:40;5.30;;;1.42;;
35907;SDS011;22003;50.320;8.054;2022-09-16T04:05:06;7.28;;;1.73;;
35907;SDS011;22003;50.320;8.054;2022-09-16T04:07:32;3.15;;;1.40;;
35907;SDS011;22003;50.320;8.054;2022-09-16T04:09:58;3.58;;;1.35;;
35907;SDS011;22003;50.320;8.054;2022-09-16T04:12:23;7.00;;;2.17;;
35907;SDS011;22003;50.320;8.054;2022-09-16T04:14:49;7.13;;;3.03;;
35907;SDS011;22003;50.320;8.054;2022-09-16T04:17:14;4.32;;;1.65;;
35907;SDS011;22003;50.320;8.054;2022-09-16T04:19:40;3.80;;;1.40;;
35907;SDS011;22003;50.320;8.054;2022-09-16T04:22:05;7.22;;;1.75;;
35907;SDS011;22003;50.320;8.054;2022-09-16T04:24:30;7.93;;;1.98;;
35907;SDS011;22003;50.320;8.054;2022-09-16T04:26:56;4.32;;;1.70;;
35907;SDS011;22003;50.320;8.054;2022-09-16T04:29:22;5.35;;;1.40;;
35907;SDS011;22003;50.320;8.054;2022-09-16T04:31:47;7.18;;;1.73;;
35907;SDS011;22003;50.320;8.054;2022-09-16T04:34:12;7.45;;;1.95;;
35907;SDS011;22003;50.320;8.054;2022-09-16T04:36:38;8.43;;;2.33;;
35907;SDS011;22003;50.320;8.054;2022-09-16T04:39:03;7.93;;;2.28;;
35907;SDS011;22003;50.320;8.054;2022-09-16T04:41:30;7.13;;;2.08;;
35907;SDS011;22003;50.320;8.054;2022-09-16T04:43:56;7.47;;;1.90;;
35907;SDS011;22003;50.320;8.054;2022-09-16T04:46:23;5.72;;;2.17;;
35907;SDS011;22003;50.320;8.054;2022-09-16T04:48:50;7.68;;;1.65;;
35907;SDS011;22003;50.320;8.054;2022-09-16T04:51:17;6.47;;;2.08;;
35907;SDS011;22003;50.320;8.054;2022-09-16T04:53:44;8.97;;;3.23;;
35907;SDS011;22003;50.320;8.054;2022-09-16T04:58:43;7.82;;;2.03;;
35907;SDS011;22003;50.320;8.054;2022-09-16T05:01:11;8.30;;;2.22;;
35907;SDS011;22003;50.320;8.054;2022-09-16T05:03:39;6.55;;;1.67;;
35907;SDS011;22003;50.320;8.054;2022-09-16T05:06:06;13.13;;;2.15;;
35907;SDS011;22003;50.320;8.054;2022-09-16T05:08:33;7.18;;;1.85;;
35907;SDS011;22003;50.320;8.054;2022-09-16T05:11:02;5.35;;;2.88;;
35907;SDS011;22003;50.320;8.054;2022-09-16T05:13:32;8.48;;;1.83;;
35907;SDS011;22003;50.320;8.054;2022-09-16T05:16:04;5.43;;;1.90;;
35907;SDS011;22003;50.320;8.054;2022-09-16T05:18:31;5.05;;;1.73;;
35907;SDS011;22003;50.320;8.054;2022-09-16T05:21:00;6.60;;;2.15;;
35907;SDS011;22003;50.320;8.054;2022-09-16T05:23:27;3.63;;;1.60;;
35907;SDS011;22003;50.320;8.054;2022-09-16T05:25:52;6.90;;;2.00;;
35907;SDS011;22003;50.320;8.054;2022-09-16T05:28:18;6.63;;;1.70;;
35907;SDS011;22003;50.320;8.054;2022-09-16T05:30:44;5.45;;;2.03;;
35907;SDS011;22003;50.320;8.054;2022-09-16T05:33:09;4.75;;;1.80;;
35907;SDS011;22003;50.320;8.054;2022-09-16T05:35:34;8.90;;;1.85;;
35907;SDS011;22003;50.320;8.054;2022-09-16T05:38:00;9.40;;;2.03;;
35907;SDS011;22003;50.320;8.054;2022-09-16T05:40:25;6.25;;;1.67;;
35907;SDS011;22003;50.320;8.054;2022-09-16T05:42:51;6.85;;;1.85;;
35907;SDS011;22003;50.320;8.054;2022-09-16T05:45:16;18.38;;;7.05;;
35907;SDS011;22003;50.320;8.054;2022-09-16T05:47:46;4.55;;;2.33;;
35907;SDS011;22003;50.320;8.054;2022-09-16T05:50:14;5.80;;;1.83;;
35907;SDS011;22003;50.320;8.054;2022-09-16T05:52:40;4.40;;;1.60;;
35907;SDS011;22003;50.320;8.054;2022-09-16T05:55:05;6.25;;;2.00;;
35907;SDS011;22003;50.320;8.054;2022-09-16T05:57:31;6.60;;;2.05;;
35907;SDS011;22003;50.320;8.054;2022-09-16T05:59:56;12.55;;;1.67;;
35907;SDS011;22003;50.320;8.054;2022-09-16T06:02:22;7.47;;;3.13;;
35907;SDS011;22003;50.320;8.054;2022-09-16T06:04:47;7.47;;;2.75;;
35907;SDS011;22003;50.320;8.054;2022-09-16T06:07:12;12.40;;;1.95;;
35907;SDS011;22003;50.320;8.054;2022-09-16T06:09:37;8.55;;;1.90;;
35907;SDS011;22003;50.320;8.054;2022-09-16T06:12:03;6.90;;;2.63;;
35907;SDS011;22003;50.320;8.054;2022-09-16T06:14:28;5.30;;;1.70;;
35907;SDS011;22003;50.320;8.054;2022-09-16T06:16:54;4.45;;;1.77;;
35907;SDS011;22003;50.320;8.054;2022-09-16T06:19:19;4.30;;;1.65;;
35907;SDS011;22003;50.320;8.054;2022-09-16T06:21:45;6.53;;;1.50;;
35907;SDS011;22003;50.320;8.054;2022-09-16T06:24:11;7.53;;;1.50;;
35907;SDS011;22003;50.320;8.054;2022-09-16T06:26:39;4.93;;;1.42;;
35907;SDS011;22003;50.320;8.054;2022-09-16T06:29:06;7.72;;;2.03;;
35907;SDS011;22003;50.320;8.054;2022-09-16T06:31:32;5.00;;;1.85;;
35907;SDS011;22003;50.320;8.054;2022-09-16T06:33:58;4.95;;;1.30;;
35907;SDS011;22003;50.320;8.054;2022-09-16T06:36:25;5.18;;;1.40;;
35907;SDS011;22003;50.320;8.054;2022-09-16T06:38:54;5.90;;;1.17;;
35907;SDS011;22003;50.320;8.054;2022-09-16T06:41:20;4.97;;;1.33;;
35907;SDS011;22003;50.320;8.054;2022-09-16T06:43:46;3.88;;;0.90;;
35907;SDS011;22003;50.320;8.054;2022-09-16T06:46:13;1.52;;;1.02;;
35907;SDS011;22003;50.320;8.054;2022-09-16T06:48:44;8.07;;;1.85;;
35907;SDS011;22003;50.320;8.054;2022-09-16T06:51:17;8.18;;;1.63;;
35907;SDS011;22003;50.320;8.054;2022-09-16T06:53:46;6.47;;;1.20;;
35907;SDS011;22003;50.320;8.054;2022-09-16T06:56:12;5.25;;;1.73;;
35907;SDS011;22003;50.320;8.054;2022-09-16T06:58:39;4.60;;;1.23;;
35907;SDS011;22003;50.320;8.054;2022-09-16T07:01:13;7.32;;;1.00;;
35907;SDS011;22003;50.320;8.054;2022-09-16T07:03:41;2.40;;;0.80;;
35907;SDS011;22003;50.320;8.054;2022-09-16T07:06:08;4.97;;;0.90;;
35907;SDS011;22003;50.320;8.054;2022-09-16T07:08:36;7.13;;;1.10;;
35907;SDS011;22003;50.320;8.054;2022-09-16T07:11:03;2.30;;;1.40;;
35907;SDS011;22003;50.320;8.054;2022-09-16T07:13:30;3.22;;;0.95;;
35907;SDS011;22003;50.320;8.054;2022-09-16T07:15:59;4.80;;;1.00;;
35907;SDS011;22003;50.320;8.054;2022-09-16T07:18:28;6.78;;;1.38;;
35907;SDS011;22003;50.320;8.054;2022-09-16T07:20:59;4.97;;;1.25;;
35907;SDS011;22003;50.320;8.054;2022-09-16T07:23:27;2.25;;;0.90;;
35907;SDS011;22003;50.320;8.054;2022-09-16T07:26:03;4.97;;;1.02;;
35907;SDS011;22003;50.320;8.054;2022-09-16T07:28:32;5.32;;;1.63;;
35907;SDS011;22003;50.320;8.054;2022-09-16T07:31:05;1.77;;;0.98;;
35907;SDS011;22003;50.320;8.054;2022-09-16T07:33:36;3.72;;;0.98;;
35907;SDS011;22003;50.320;8.054;2022-09-16T07:36:03;4.60;;;0.77;;
35907;SDS011;22003;50.320;8.054;2022-09-16T07:38:30;4.45;;;0.73;;
35907;SDS011;22003;50.320;8.054;2022-09-16T07:43:32;2.50;;;0.95;;
35907;SDS011;22003;50.320;8.054;2022-09-16T07:45:58;4.57;;;0.82;;
35907;SDS011;22003;50.320;8.054;2022-09-16T07:48:24;4.15;;;0.90;;
35907;SDS011;22003;50.320;8.054;2022-09-16T07:50:53;6.45;;;0.88;;
35907;SDS011;22003;50.320;8.054;2022-09-16T07:53:23;4.93;;;1.40;;
35907;SDS011;22003;50.320;8.054;2022-09-16T07:55:51;8.20;;;1.20;;
35907;SDS011;22003;50.320;8.054;2022-09-16T07:58:16;1.90;;;0.80;;
35907;SDS011;22003;50.320;8.054;2022-09-16T08:00:42;2.92;;;1.25;;
35907;SDS011;22003;50.320;8.054;2022-09-16T08:03:08;8.27;;;0.90;;
35907;SDS011;22003;50.320;8.054;2022-09-16T08:05:34;7.55;;;1.20;;
35907;SDS011;22003;50.320;8.054;2022-09-16T08:07:59;3.25;;;0.80;;
35907;SDS011;22003;50.320;8.054;2022-09-16T08:10:24;2.30;;;0.75;;
35907;SDS011;22003;50.320;8.054;2022-09-16T08:12:50;1.83;;;0.80;;
35907;SDS011;22003;50.320;8.054;2022-09-16T08:15:15;3.50;;;1.50;;
35907;SDS011;22003;50.320;8.054;2022-09-16T08:17:40;5.45;;;1.27;;
35907;SDS011;22003;50.320;8.054;2022-09-16T08:20:06;3.10;;;0.80;;
35907;SDS011;22003;50.320;8.054;2022-09-16T08:22:32;6.75;;;1.00;;
35907;SDS011;22003;50.320;8.054;2022-09-16T08:24:57;6.00;;;0.88;;
35907;SDS011;22003;50.320;8.054;2022-09-16T08:27:23;6.00;;;1.00;;
35907;SDS011;22003;50.320;8.054;2022-09-16T08:29:48;6.45;;;1.08;;
35907;SDS011;22003;50.320;8.054;2022-09-16T08:32:14;5.25;;;0.65;;
35907;SDS011;22003;50.320;8.054;2022-09-16T08:34:39;6.85;;;0.93;;
35907;SDS011;22003;50.320;8.054;2022-09-16T08:37:04;4.20;;;0.77;;
35907;SDS011;22003;50.320;8.054;2022-09-16T08:39:30;3.35;;;0.88;;
35907;SDS011;22003;50.320;8.054;2022-09-16T08:47:38;2.78;;;1.00;;
35907;SDS011;22003;50.320;8.054;2022-09-16T08:50:25;2.65;;;0.80;;
35907;SDS011;22003;50.320;8.054;2022-09-16T08:52:53;1.67;;;0.70;;
35907;SDS011;22003;50.320;8.054;2022-09-16T08:57:57;2.08;;;0.70;;
35907;SDS011;22003;50.320;8.054;2022-09-16T09:00:25;3.97;;;0.95;;
35907;SDS011;22003;50.320;8.054;2022-09-16T09:03:13;2.30;;;0.63;;
35907;SDS011;22003;50.320;8.054;2022-09-16T09:05:59;4.30;;;1.30;;
35907;SDS011;22003;50.320;8.054;2022-09-16T09:27:57;7.28;;;1.05;;
35907;SDS011;22003;50.320;8.054;2022-09-16T09:30:54;2.95;;;0.98;;
35907;SDS011;22003;50.320;8.054;2022-09-16T09:39:30;2.78;;;0.80;;
35907;SDS011;22003;50.320;8.054;2022-09-16T09:44:52;4.85;;;0.82;;
35907;SDS011;22003;50.320;8.054;2022-09-16T09:47:41;2.58;;;0.90;;
35907;SDS011;22003;50.320;8.054;2022-09-16T09:50:19;2.67;;;0.75;;
35907;SDS011;22003;50.320;8.054;2022-09-16T09:52:55;1.58;;;0.82;;
35907;SDS011;22003;50.320;8.054;2022-09-16T09:55:30;4.35;;;0.70;;
35907;SDS011;22003;50.320;8.054;2022-09-16T09:57:58;6.97;;;1.20;;
35907;SDS011;22003;50.320;8.054;2022-09-16T10:00:25;5.55;;;0.90;;
35907;SDS011;22003;50.320;8.054;2022-09-16T10:02:51;4.63;;;0.77;;
35907;SDS011;22003;50.320;8.054;2022-09-16T10:07:59;2.90;;;0.70;;
35907;SDS011;22003;50.320;8.054;2022-09-16T10:10:30;1.92;;;1.10;;
35907;SDS011;22003;50.320;8.054;2022-09-16T10:13:08;3.38;;;0.85;;
35907;SDS011;22003;50.320;8.054;2022-09-16T10:15:35;1.85;;;0.80;;
35907;SDS011;22003;50.320;8.054;2022-09-16T10:18:07;2.83;;;0.73;;
35907;SDS011;22003;50.320;8.054;2022-09-16T10:20:37;1.30;;;0.50;;
35907;SDS011;22003;50.320;8.054;2022-09-16T10:23:08;2.15;;;0.75;;
35907;SDS011;22003;50.320;8.054;2022-09-16T10:25:35;4.82;;;0.93;;
35907;SDS011;22003;50.320;8.054;2022-09-16T10:28:02;1.67;;;0.88;;
35907;SDS011;22003;50.320;8.054;2022-09-16T10:30:52;2.25;;;1.00;;
35907;SDS011;22003;50.320;8.054;2022-09-16T10:33:30;4.35;;;1.10;;
35907;SDS011;22003;50.320;8.054;2022-09-16T10:36:04;4.28;;;1.52;;
35907;SDS011;22003;50.320;8.054;2022-09-16T10:38:39;2.08;;;1.10;;
35907;SDS011;22003;50.320;8.054;2022-09-16T10:41:22;2.03;;;1.17;;
35907;SDS011;22003;50.320;8.054;2022-09-16T10:43:51;4.47;;;1.10;;
35907;SDS011;22003;50.320;8.054;2022-09-16T10:46:19;2.55;;;1.50;;
35907;SDS011;22003;50.320;8.054;2022-09-16T10:48:44;3.33;;;1.40;;
35907;SDS011;22003;50.320;8.054;2022-09-16T10:53:54;6.60;;;1.10;;
35907;SDS011;22003;50.320;8.054;2022-09-16T10:56:23;5.18;;;0.90;;
35907;SDS011;22003;50.320;8.054;2022-09-16T10:59:07;1.80;;;1.10;;
35907;SDS011;22003;50.320;8.054;2022-09-16T11:14:57;3.25;;;0.75;;
35907;SDS011;22003;50.320;8.054;2022-09-16T11:17:30;2.85;;;0.93;;
35907;SDS011;22003;50.320;8.054;2022-09-16T11:22:57;2.13;;;0.65;;
35907;SDS011;22003;50.320;8.054;2022-09-16T11:31:15;3.10;;;0.70;;
35907;SDS011;22003;50.320;8.054;2022-09-16T11:34:03;2.38;;;1.02;;
35907;SDS011;22003;50.320;8.054;2022-09-16T11:36:33;1.20;;;1.05;;
35907;SDS011;22003;50.320;8.054;2022-09-16T11:47:57;4.65;;;0.90;;
35907;SDS011;22003;50.320;8.054;2022-09-16T11:58:32;1.90;;;0.70;;
35907;SDS011;22003;50.320;8.054;2022-09-16T12:01:38;1.50;;;0.77;;
35907;SDS011;22003;50.320;8.054;2022-09-16T12:04:16;1.95;;;0.63;;
35907;SDS011;22003;50.320;8.054;2022-09-16T12:07:00;1.98;;;0.43;;
35907;SDS011;22003;50.320;8.054;2022-09-16T12:12:38;0.82;;;0.40;;
35907;SDS011;22003;50.320;8.054;2022-09-16T12:15:20;1.55;;;0.55;;
35907;SDS011;22003;50.320;8.054;2022-09-16T12:17:54;0.93;;;0.40;;
35907;SDS011;22003;50.320;8.054;2022-09-16T12:20:25;0.82;;;0.30;;
35907;SDS011;22003;50.320;8.054;2022-09-16T12:22:57;3.28;;;0.50;;
35907;SDS011;22003;50.320;8.054;2022-09-16T12:25:34;2.50;;;0.60;;
35907;SDS011;22003;50.320;8.054;2022-09-16T12:28:14;2.83;;;0.57;;
35907;SDS011;22003;50.320;8.054;2022-09-16T12:30:46;3.00;;;0.68;;
35907;SDS011;22003;50.320;8.054;2022-09-16T12:33:21;1.70;;;0.40;;
35907;SDS011;22003;50.320;8.054;2022-09-16T12:35:58;3.03;;;1.15;;
35907;SDS011;22003;50.320;8.054;2022-09-16T12:41:11;2.15;;;0.43;;
35907;SDS011;22003;50.320;8.054;2022-09-16T12:46:24;2.67;;;0.60;;
35907;SDS011;22003;50.320;8.054;2022-09-16T12:49:09;0.60;;;0.40;;
35907;SDS011;22003;50.320;8.054;2022-09-16T12:57:58;4.50;;;0.88;;
35907;SDS011;22003;50.320;8.054;2022-09-16T13:00:42;4.32;;;0.73;;
35907;SDS011;22003;50.320;8.054;2022-09-16T13:03:20;1.85;;;0.40;;
35907;SDS011;22003;50.320;8.054;2022-09-16T13:05:49;0.20;;;0.20;;
35907;SDS011;22003;50.320;8.054;2022-09-16T13:08:35;2.33;;;0.40;;
35907;SDS011;22003;50.320;8.054;2022-09-16T13:11:04;1.70;;;0.55;;
35907;SDS011;22003;50.320;8.054;2022-09-16T13:13:39;1.80;;;0.60;;
35907;SDS011;22003;50.320;8.054;2022-09-16T13:16:09;5.85;;;0.60;;
35907;SDS011;22003;50.320;8.054;2022-09-16T13:21:29;2.00;;;0.47;;
35907;SDS011;22003;50.320;8.054;2022-09-16T13:26:47;4.88;;;0.30;;
35907;SDS011;22003;50.320;8.054;2022-09-16T13:32:24;0.95;;;0.30;;
35907;SDS011;22003;50.320;8.054;2022-09-16T13:35:03;3.45;;;0.93;;
35907;SDS011;22003;50.320;8.054;2022-09-16T13:37:45;1.13;;;0.30;;
35907;SDS011;22003;50.320;8.054;2022-09-16T13:43:02;2.38;;;0.52;;
35907;SDS011;22003;50.320;8.054;2022-09-16T13:45:47;6.35;;;0.50;;
35907;SDS011;22003;50.320;8.054;2022-09-16T13:48:19;0.52;;;0.30;;
35907;SDS011;22003;50.320;8.054;2022-09-16T13:50:52;1.05;;;0.50;;
35907;SDS011;22003;50.320;8.054;2022-09-16T13:53:25;2.58;;;0.40;;
35907;SDS011;22003;50.320;8.054;2022-09-16T13:56:14;0.82;;;0.35;;
35907;SDS011;22003;50.320;8.054;2022-09-16T14:07:16;1.95;;;0.77;;
35907;SDS011;22003;50.320;8.054;2022-09-16T14:10:02;2.25;;;0.50;;
35907;SDS011;22003;50.320;8.054;2022-09-16T14:15:24;1.23;;;0.50;;
35907;SDS011;22003;50.320;8.054;2022-09-16T14:17:52;2.58;;;0.57;;
35907;SDS011;22003;50.320;8.054;2022-09-16T14:20:22;0.77;;;0.20;;
35907;SDS011;22003;50.320;8.054;2022-09-16T14:22:59;0.55;;;0.30;;
35907;SDS011;22003;50.320;8.054;2022-09-16T14:25:27;1.65;;;0.30;;
35907;SDS011;22003;50.320;8.054;2022-09-16T14:30:45;4.75;;;0.28;;
35907;SDS011;22003;50.320;8.054;2022-09-16T14:33:13;3.70;;;0.30;;
35907;SDS011;22003;50.320;8.054;2022-09-16T14:35:40;0.20;;;0.20;;
35907;SDS011;22003;50.320;8.054;2022-09-16T14:38:08;0.50;;;0.20;;
35907;SDS011;22003;50.320;8.054;2022-09-16T14:40:33;0.35;;;0.20;;
35907;SDS011;22003;50.320;8.054;2022-09-16T14:43:05;0.52;;;0.20;;
35907;SDS011;22003;50.320;8.054;2022-09-16T14:45:32;0.90;;;0.40;;
35907;SDS011;22003;50.320;8.054;2022-09-16T14:48:00;0.43;;;0.22;;
35907;SDS011;22003;50.320;8.054;2022-09-16T14:50:30;1.48;;;0.30;;
35907;SDS011;22003;50.320;8.054;2022-09-16T14:55:28;1.00;;;0.20;;
35907;SDS011;22003;50.320;8.054;2022-09-16T14:57:55;0.20;;;0.20;;
35907;SDS011;22003;50.320;8.054;2022-09-16T15:00:22;0.52;;;0.32;;
35907;SDS011;22003;50.320;8.054;2022-09-16T15:05:36;0.52;;;0.30;;
35907;SDS011;22003;50.320;8.054;2022-09-16T15:08:15;0.93;;;0.40;;
35907;SDS011;22003;50.320;8.054;2022-09-16T15:10:46;0.53;;;0.30;;
35907;SDS011;22003;50.320;8.054;2022-09-16T15:13:13;1.27;;;0.20;;
35907;SDS011;22003;50.320;8.054;2022-09-16T15:18:25;1.88;;;0.32;;
35907;SDS011;22003;50.320;8.054;2022-09-16T15:23:47;2.55;;;0.40;;
35907;SDS011;22003;50.320;8.054;2022-09-16T15:26:19;0.77;;;0.47;;
35907;SDS011;22003;50.320;8.054;2022-09-16T15:28:50;0.75;;;0.35;;
35907;SDS011;22003;50.320;8.054;2022-09-16T15:31:28;1.55;;;0.38;;
35907;SDS011;22003;50.320;8.054;2022-09-16T15:33:56;2.15;;;0.30;;
35907;SDS011;22003;50.320;8.054;2022-09-16T15:36:38;0.28;;;0.20;;
35907;SDS011;22003;50.320;8.054;2022-09-16T15:39:20;2.30;;;0.47;;
35907;SDS011;22003;50.320;8.054;2022-09-16T15:44:45;2.90;;;0.30;;
35907;SDS011;22003;50.320;8.054;2022-09-16T15:47:19;0.70;;;0.30;;
35907;SDS011;22003;50.320;8.054;2022-09-16T15:49:49;1.25;;;0.30;;
35907;SDS011;22003;50.320;8.054;2022-09-16T15:52:19;0.30;;;0.30;;
35907;SDS011;22003;50.320;8.054;2022-09-16T15:54:47;0.10;;;0.10;;
35907;SDS011;22003;50.320;8.054;2022-09-16T16:00:00;2.85;;;0.40;;
35907;SDS011;22003;50.320;8.054;2022-09-16T16:02:47;1.77;;;0.20;;
35907;SDS011;22003;50.320;8.054;2022-09-16T16:05:19;3.35;;;0.35;;
35907;SDS011;22003;50.320;8.054;2022-09-16T16:07:46;1.08;;;0.30;;
35907;SDS011;22003;50.320;8.054;2022-09-16T16:12:41;1.73;;;0.30;;
35907;SDS011;22003;50.320;8.054;2022-09-16T16:15:10;0.22;;;0.22;;
35907;SDS011;22003;50.320;8.054;2022-09-16T16:17:35;2.33;;;0.30;;
35907;SDS011;22003;50.320;8.054;2022-09-16T16:20:01;0.82;;;0.20;;
35907;SDS011;22003;50.320;8.054;2022-09-16T16:22:26;0.20;;;0.20;;
35907;SDS011;22003;50.320;8.054;2022-09-16T16:24:52;0.43;;;0.28;;
35907;SDS011;22003;50.320;8.054;2022-09-16T16:27:17;0.40;;;0.25;;
35907;SDS011;22003;50.320;8.054;2022-09-16T16:29:43;0.30;;;0.28;;
35907;SDS011;22003;50.320;8.054;2022-09-16T16:32:09;1.45;;;0.32;;
35907;SDS011;22003;50.320;8.054;2022-09-16T16:34:37;0.50;;;0.40;;
35907;SDS011;22003;50.320;8.054;2022-09-16T16:37:14;0.38;;;0.30;;
35907;SDS011;22003;50.320;8.054;2022-09-16T16:39:41;2.20;;;0.30;;
35907;SDS011;22003;50.320;8.054;2022-09-16T16:42:06;1.88;;;0.30;;
35907;SDS011;22003;50.320;8.054;2022-09-16T16:44:33;0.32;;;0.30;;
35907;SDS011;22003;50.320;8.054;2022-09-16T16:46:59;1.45;;;0.50;;
35907;SDS011;22003;50.320;8.054;2022-09-16T16:49:25;2.40;;;0.63;;
35907;SDS011;22003;50.320;8.054;2022-09-16T16:51:50;0.50;;;0.30;;
35907;SDS011;22003;50.320;8.054;2022-09-16T16:54:17;2.53;;;0.30;;
35907;SDS011;22003;50.320;8.054;2022-09-16T16:56:43;0.57;;;0.20;;
35907;SDS011;22003;50.320;8.054;2022-09-16T16:59:10;0.57;;;0.30;;
35907;SDS011;22003;50.320;8.054;2022-09-16T17:01:36;0.73;;;0.35;;
35907;SDS011;22003;50.320;8.054;2022-09-16T17:04:02;1.05;;;0.25;;
35907;SDS011;22003;50.320;8.054;2022-09-16T17:06:28;0.75;;;0.30;;
35907;SDS011;22003;50.320;8.054;2022-09-16T17:08:54;0.90;;;0.30;;
35907;SDS011;22003;50.320;8.054;2022-09-16T17:11:20;1.98;;;0.32;;
35907;SDS011;22003;50.320;8.054;2022-09-16T17:13:47;0.17;;;0.13;;
35907;SDS011;22003;50.320;8.054;2022-09-16T17:16:16;1.55;;;0.25;;
35907;SDS011;22003;50.320;8.054;2022-09-16T17:18:44;1.25;;;0.50;;
35907;SDS011;22003;50.320;8.054;2022-09-16T17:21:10;5.57;;;0.88;;
35907;SDS011;22003;50.320;8.054;2022-09-16T17:23:40;0.52;;;0.50;;
35907;SDS011;22003;50.320;8.054;2022-09-16T17:26:06;2.08;;;0.45;;
35907;SDS011;22003;50.320;8.054;2022-09-16T17:28:36;1.88;;;0.50;;
35907;SDS011;22003;50.320;8.054;2022-09-16T17:31:07;2.38;;;0.57;;
35907;SDS011;22003;50.320;8.054;2022-09-16T17:33:33;0.85;;;0.40;;
35907;SDS011;22003;50.320;8.054;2022-09-16T17:36:03;1.70;;;0.70;;
35907;SDS011;22003;50.320;8.054;2022-09-16T17:38:29;1.60;;;0.40;;
35907;SDS011;22003;50.320;8.054;2022-09-16T17:43:29;2.13;;;0.50;;
35907;SDS011;22003;50.320;8.054;2022-09-16T17:45:56;1.75;;;0.40;;
35907;SDS011;22003;50.320;8.054;2022-09-16T17:48:22;0.73;;;0.32;;
35907;SDS011;22003;50.320;8.054;2022-09-16T17:50:51;1.30;;;0.30;;
35907;SDS011;22003;50.320;8.054;2022-09-16T17:53:16;0.73;;;0.35;;
35907;SDS011;22003;50.320;8.054;2022-09-16T17:55:42;0.93;;;0.45;;
35907;SDS011;22003;50.320;8.054;2022-09-16T17:58:07;0.85;;;0.40;;
35907;SDS011;22003;50.320;8.054;2022-09-16T18:00:33;1.95;;;0.50;;
35907;SDS011;22003;50.320;8.054;2022-09-16T18:02:58;1.23;;;0.30;;
35907;SDS011;22003;50.320;8.054;2022-09-16T18:05:23;1.60;;;0.40;;
35907;SDS011;22003;50.320;8.054;2022-09-16T18:07:49;3.30;;;0.30;;
35907;SDS011;22003;50.320;8.054;2022-09-16T18:10:14;1.23;;;0.40;;
35907;SDS011;22003;50.320;8.054;2022-09-16T18:12:39;4.85;;;0.80;;
35907;SDS011;22003;50.320;8.054;2022-09-16T18:15:04;2.65;;;0.40;;
35907;SDS011;22003;50.320;8.054;2022-09-16T18:17:30;0.95;;;0.32;;
35907;SDS011;22003;50.320;8.054;2022-09-16T18:19:55;0.77;;;0.20;;
35907;SDS011;22003;50.320;8.054;2022-09-16T18:22:21;1.98;;;0.70;;
35907;SDS011;22003;50.320;8.054;2022-09-16T18:24:46;2.55;;;0.50;;
35907;SDS011;22003;50.320;8.054;2022-09-16T18:27:11;1.35;;;0.50;;
35907;SDS011;22003;50.320;8.054;2022-09-16T18:29:37;1.60;;;0.70;;
35907;SDS011;22003;50.320;8.054;2022-09-16T18:32:03;3.17;;;1.00;;
35907;SDS011;22003;50.320;8.054;2022-09-16T18:34:29;4.13;;;0.65;;
35907;SDS011;22003;50.320;8.054;2022-09-16T18:36:55;3.08;;;1.30;;
35907;SDS011;22003;50.320;8.054;2022-09-16T18:39:20;2.13;;;0.80;;
35907;SDS011;22003;50.320;8.054;2022-09-16T18:41:46;1.92;;;0.70;;
35907;SDS011;22003;50.320;8.054;2022-09-16T18:44:12;2.67;;;0.98;;
35907;SDS011;22003;50.320;8.054;2022-09-16T18:46:39;3.35;;;0.90;;
35907;SDS011;22003;50.320;8.054;2022-09-16T18:49:05;4.93;;;1.67;;
35907;SDS011;22003;50.320;8.054;2022-09-16T18:51:32;2.85;;;1.17;;
35907;SDS011;22003;50.320;8.054;2022-09-16T18:54:00;1.92;;;0.88;;
35907;SDS011;22003;50.320;8.054;2022-09-16T18:56:31;2.38;;;0.50;;
35907;SDS011;22003;50.320;8.054;2022-09-16T18:58:59;5.40;;;0.60;;
35907;SDS011;22003;50.320;8.054;2022-09-16T19:01:30;2.60;;;0.70;;
35907;SDS011;22003;50.320;8.054;2022-09-16T19:04:00;1.85;;;0.47;;
35907;SDS011;22003;50.320;8.054;2022-09-16T19:06:29;2.15;;;0.40;;
35907;SDS011;22003;50.320;8.054;2022-09-16T19:08:56;1.92;;;0.50;;
35907;SDS011;22003;50.320;8.054;2022-09-16T19:11:22;0.35;;;0.35;;
35907;SDS011;22003;50.320;8.054;2022-09-16T19:13:48;2.25;;;0.50;;
35907;SDS011;22003;50.320;8.054;2022-09-16T19:16:13;2.30;;;0.50;;
35907;SDS011;22003;50.320;8.054;2022-09-16T19:18:39;4.00;;;0.50;;
35907;SDS011;22003;50.320;8.054;2022-09-16T19:21:10;1.13;;;0.35;;
35907;SDS011;22003;50.320;8.054;2022-09-16T19:23:47;0.70;;;0.40;;
35907;SDS011;22003;50.320;8.054;2022-09-16T19:26:16;2.42;;;0.38;;
35907;SDS011;22003;50.320;8.054;2022-09-16T19:28:42;1.60;;;0.30;;
35907;SDS011;22003;50.320;8.054;2022-09-16T19:31:08;1.77;;;0.47;;
35907;SDS011;22003;50.320;8.054;2022-09-16T19:33:35;3.50;;;0.45;;
35907;SDS011;22003;50.320;8.054;2022-09-16T19:36:08;1.08;;;0.50;;
35907;SDS011;22003;50.320;8.054;2022-09-16T19:38:44;1.15;;;0.35;;
35907;SDS011;22003;50.320;8.054;2022-09-16T19:41:10;0.38;;;0.30;;
35907;SDS011;22003;50.320;8.054;2022-09-16T19:43:37;0.70;;;0.45;;
35907;SDS011;22003;50.320;8.054;2022-09-16T19:46:03;2.83;;;0.70;;
35907;SDS011;22003;50.320;8.054;2022-09-16T19:48:30;2.65;;;0.57;;
35907;SDS011;22003;50.320;8.054;2022-09-16T19:50:57;0.50;;;0.30;;
35907;SDS011;22003;50.320;8.054;2022-09-16T19:53:22;1.88;;;0.50;;
35907;SDS011;22003;50.320;8.054;2022-09-16T19:55:47;1.33;;;0.50;;
35907;SDS011;22003;50.320;8.054;2022-09-16T19:58:13;1.85;;;0.60;;
35907;SDS011;22003;50.320;8.054;2022-09-16T20:00:38;0.98;;;0.32;;
35907;SDS011;22003;50.320;8.054;2022-09-16T20:03:03;1.13;;;0.50;;
35907;SDS011;22003;50.320;8.054;2022-09-16T20:05:28;1.60;;;0.60;;
35907;SDS011;22003;50.320;8.054;2022-09-16T20:07:54;1.42;;;0.50;;
35907;SDS011;22003;50.320;8.054;2022-09-16T20:10:20;4.97;;;0.60;;
35907;SDS011;22003;50.320;8.054;2022-09-16T20:12:45;5.55;;;0.77;;
35907;SDS011;22003;50.320;8.054;2022-09-16T20:15:11;1.27;;;0.32;;
35907;SDS011;22003;50.320;8.054;2022-09-16T20:17:36;3.90;;;0.80;;
35907;SDS011;22003;50.320;8.054;2022-09-16T20:20:03;2.47;;;0.88;;
35907;SDS011;22003;50.320;8.054;2022-09-16T20:22:31;3.20;;;0.77;;
35907;SDS011;22003;50.320;8.054;2022-09-16T20:24:56;3.92;;;0.93;;
35907;SDS011;22003;50.320;8.054;2022-09-16T20:27:21;1.35;;;0.70;;
35907;SDS011;22003;50.320;8.054;2022-09-16T20:29:47;2.03;;;0.40;;
35907;SDS011;22003;50.320;8.054;2022-09-16T20:32:12;1.38;;;0.50;;
35907;SDS011;22003;50.320;8.054;2022-09-16T20:34:38;3.17;;;0.70;;
35907;SDS011;22003;50.320;8.054;2022-09-16T20:37:03;4.65;;;0.55;;
35907;SDS011;22003;50.320;8.054;2022-09-16T20:39:28;3.50;;;0.60;;
35907;SDS011;22003;50.320;8.054;2022-09-16T20:41:54;1.08;;;0.45;;
35907;SDS011;22003;50.320;8.054;2022-09-16T20:44:19;7.68;;;1.33;;
35907;SDS011;22003;50.320;8.054;2022-09-16T20:46:44;0.52;;;0.40;;
35907;SDS011;22003;50.320;8.054;2022-09-16T20:49:12;3.72;;;0.70;;
35907;SDS011;22003;50.320;8.054;2022-09-16T20:51:39;3.38;;;0.73;;
35907;SDS011;22003;50.320;8.054;2022-09-16T20:54:06;3.90;;;0.68;;
35907;SDS011;22003;50.320;8.054;2022-09-16T20:56:34;3.63;;;0.77;;
35907;SDS011;22003;50.320;8.054;2022-09-16T20:59:01;2.00;;;0.80;;
35907;SDS011;22003;50.320;8.054;2022-09-16T21:01:27;3.03;;;0.70;;
35907;SDS011;22003;50.320;8.054;2022-09-16T21:03:56;3.65;;;0.90;;
35907;SDS011;22003;50.320;8.054;2022-09-16T21:06:23;2.45;;;0.30;;
35907;SDS011;22003;50.320;8.054;2022-09-16T21:08:53;4.28;;;0.88;;
35907;SDS011;22003;50.320;8.054;2022-09-16T21:11:20;3.47;;;0.90;;
35907;SDS011;22003;50.320;8.054;2022-09-16T21:13:50;4.70;;;0.70;;
35907;SDS011;22003;50.320;8.054;2022-09-16T21:16:18;2.28;;;1.20;;
35907;SDS011;22003;50.320;8.054;2022-09-16T21:18:44;3.15;;;0.77;;
35907;SDS011;22003;50.320;8.054;2022-09-16T21:21:13;4.43;;;1.15;;
35907;SDS011;22003;50.320;8.054;2022-09-16T21:23:46;1.20;;;0.52;;
35907;SDS011;22003;50.320;8.054;2022-09-16T21:26:13;2.05;;;0.73;;